createdAt,value
2022-08-01T00:00:36.151Z,54.25
2022-08-01T00:01:40.563Z,54.08
2022-08-01T00:03:32.821Z,53.99
2022-08-01T00:04:30.205Z,54.09
2022-08-01T00:05:22.161Z,53.67
2022-08-01T00:06:29.493Z,53.93
2022-08-01T00:07:27.220Z,53.93
2022-08-01T00:08:28.352Z,53.95
2022-08-01T00:09:27.651Z,53.61
2022-08-01T00:10:19.070Z,53.60
2022-08-01T00:11:22.928Z,53.82
2022-08-01T00:12:21.951Z,53.74
2022-08-01T00:14:08.039Z,53.68
2022-08-01T00:16:12.255Z,53.53
2022-08-01T00:17:07.606Z,53.65
2022-08-01T00:18:02.398Z,53.38
2022-08-01T00:21:37.251Z,53.56
2022-08-01T00:23:30.688Z,53.34
2022-08-01T00:24:20.201Z,53.61
2022-08-01T00:25:18.056Z,53.48
2022-08-01T00:26:13.673Z,53.37
2022-08-01T00:27:05.966Z,53.15
2022-08-01T00:27:58.358Z,53.21
2022-08-01T00:30:58.267Z,53.27
2022-08-01T00:31:54.392Z,53.39
2022-08-01T00:32:47.493Z,53.22
2022-08-01T00:33:36.901Z,53.25
2022-08-01T00:34:26.636Z,53.14
2022-08-01T00:35:09.222Z,53.21
2022-08-01T00:35:59.920Z,53.45
2022-08-01T00:37:50.909Z,54.31
2022-08-01T00:38:48.096Z,54.33
2022-08-01T00:42:26.592Z,54.44
2022-08-01T00:43:21.875Z,54.61
2022-08-01T00:47:55.022Z,54.74
2022-08-01T00:48:38.317Z,54.70
2022-08-01T00:49:23.954Z,54.76
2022-08-01T00:50:09.357Z,55.06
2022-08-01T00:50:57.420Z,54.93
2022-08-01T00:51:53.414Z,55.29
2022-08-01T00:52:51.375Z,55.09
2022-08-01T00:53:51.223Z,55.04
2022-08-01T00:54:38.703Z,55.38
2022-08-01T00:55:47.543Z,55.42
2022-08-01T00:56:50.098Z,55.56
2022-08-01T00:58:04.779Z,55.19
2022-08-01T00:58:52.339Z,55.61
2022-08-01T00:59:46.864Z,55.42
2022-08-01T01:00:52.743Z,55.82
2022-08-01T01:01:46.476Z,55.62
2022-08-01T01:02:33.877Z,55.57
2022-08-01T01:03:49.391Z,55.96
2022-08-01T01:04:27.772Z,55.60
2022-08-01T01:05:17.544Z,55.87
2022-08-01T01:06:10.821Z,56.00
2022-08-01T01:06:57.216Z,56.03
2022-08-01T01:07:49.933Z,55.97
2022-08-01T01:08:33.942Z,55.99
2022-08-01T01:09:27.318Z,55.98
2022-08-01T01:10:20.946Z,55.97
2022-08-01T01:11:09.832Z,56.04
2022-08-01T01:12:09.459Z,55.75
2022-08-01T01:12:56.836Z,55.78
2022-08-01T01:13:50.348Z,56.04
2022-08-01T01:14:40.369Z,55.92
2022-08-01T01:15:25.760Z,55.80
2022-08-01T01:16:14.538Z,55.98
2022-08-01T01:16:59.387Z,55.93
2022-08-01T01:17:50.972Z,55.86
2022-08-01T01:18:32.128Z,55.77
2022-08-01T01:19:18.504Z,55.68
2022-08-01T01:20:09.453Z,55.71
2022-08-01T01:21:03.771Z,56.09
2022-08-01T01:21:49.399Z,56.06
2022-08-01T01:22:40.891Z,56.23
2022-08-01T01:23:28.983Z,55.82
2022-08-01T01:24:20.573Z,56.07
2022-08-01T01:25:06.950Z,56.20
2022-08-01T01:25:58.635Z,56.17
2022-08-01T01:26:41.996Z,56.16
2022-08-01T01:27:32.182Z,56.20
2022-08-01T01:28:17.388Z,56.08
2022-08-01T01:29:07.432Z,56.11
2022-08-01T01:29:59.675Z,55.98
2022-08-01T01:30:47.388Z,55.89
2022-08-01T01:31:36.186Z,56.00
2022-08-01T01:32:28.678Z,56.25
2022-08-01T01:33:16.173Z,56.00
2022-08-01T01:34:04.090Z,56.22
2022-08-01T01:34:54.605Z,56.10
2022-08-01T01:35:40.892Z,56.09
2022-08-01T01:36:24.107Z,56.16
2022-08-01T01:37:12.128Z,55.87
2022-08-01T01:37:58.125Z,56.14
2022-08-01T01:38:47.253Z,56.02
2022-08-01T01:39:33.801Z,55.97
2022-08-01T01:40:22.416Z,56.00
2022-08-01T01:41:04.032Z,55.97
2022-08-01T01:41:53.370Z,56.32
2022-08-01T01:42:48.606Z,56.21
2022-08-01T01:43:36.631Z,56.15
2022-08-01T01:44:25.057Z,56.32
2022-08-01T01:45:21.596Z,56.16
2022-08-01T01:48:15.626Z,56.00
2022-08-01T01:49:17.330Z,56.11
2022-08-01T01:50:17.994Z,56.13
2022-08-01T01:51:14.302Z,56.16
2022-08-01T01:52:53.721Z,56.32
2022-08-01T01:56:00.659Z,56.40
2022-08-01T01:57:01.571Z,56.12
2022-08-01T01:57:58.623Z,56.17
2022-08-01T01:58:49.173Z,56.47
2022-08-01T01:59:43.504Z,56.30
2022-08-01T02:00:38.750Z,56.38
2022-08-01T02:02:05.464Z,56.16
2022-08-01T02:02:52.629Z,56.13
2022-08-01T02:04:04.998Z,56.07
2022-08-01T02:05:05.078Z,56.34
2022-08-01T02:06:11.982Z,56.38
2022-08-01T02:07:06.153Z,56.12
2022-08-01T02:07:59.665Z,56.11
2022-08-01T02:08:54.977Z,56.00
2022-08-01T02:10:47.202Z,56.45
2022-08-01T02:12:58.435Z,56.12
2022-08-01T02:14:01.879Z,56.06
2022-08-01T02:14:59.155Z,56.14
2022-08-01T02:15:59.447Z,56.12
2022-08-01T02:17:07.159Z,56.15
2022-08-01T02:17:51.330Z,56.31
2022-08-01T02:18:36.022Z,56.28
2022-08-01T02:19:20.621Z,56.33
2022-08-01T02:20:04.344Z,56.34
2022-08-01T02:20:47.703Z,56.36
2022-08-01T02:22:29.989Z,56.49
2022-08-01T02:23:15.234Z,56.22
2022-08-01T02:24:03.994Z,56.58
2022-08-01T02:24:53.715Z,56.30
2022-08-01T02:26:08.521Z,56.31
2022-08-01T02:26:48.504Z,56.42
2022-08-01T02:27:34.383Z,56.52
2022-08-01T02:28:19.550Z,56.45
2022-08-01T02:29:13.365Z,56.66
2022-08-01T02:30:06.368Z,56.60
2022-08-01T02:30:56.065Z,56.30
2022-08-01T02:31:47.708Z,56.35
2022-08-01T02:32:30.485Z,56.32
2022-08-01T02:33:24.668Z,56.66
2022-08-01T02:34:11.221Z,56.61
2022-08-01T02:35:03.913Z,56.30
2022-08-01T02:36:29.804Z,56.32
2022-08-01T02:36:53.860Z,56.22
2022-08-01T02:37:44.427Z,56.54
2022-08-01T02:38:39.770Z,56.18
2022-08-01T02:39:29.330Z,56.32
2022-08-01T02:40:17.186Z,56.40
2022-08-01T02:41:07.672Z,56.83
2022-08-01T02:42:00.841Z,56.63
2022-08-01T02:42:50.458Z,56.62
2022-08-01T02:43:41.346Z,56.55
2022-08-01T02:44:35.894Z,56.52
2022-08-01T02:45:20.986Z,56.66
2022-08-01T02:46:13.362Z,56.49
2022-08-01T02:46:57.604Z,56.38
2022-08-01T02:47:49.169Z,56.16
2022-08-01T02:48:33.976Z,56.49
2022-08-01T02:50:11.065Z,56.19
2022-08-01T02:51:05.037Z,56.29
2022-08-01T02:51:49.656Z,56.26
2022-08-01T02:52:43.058Z,56.26
2022-08-01T02:53:44.156Z,56.25
2022-08-01T02:54:27.792Z,56.31
2022-08-01T02:55:28.909Z,56.33
2022-08-01T02:56:19.313Z,56.23
2022-08-01T02:57:08.281Z,56.26
2022-08-01T02:57:58.429Z,56.38
2022-08-01T02:58:43.846Z,56.39
2022-08-01T02:59:32.527Z,56.10
2022-08-01T03:00:18.740Z,56.46
2022-08-01T03:01:04.436Z,56.39
2022-08-01T03:01:55.088Z,56.46
2022-08-01T03:02:45.016Z,56.40
2022-08-01T03:03:31.121Z,56.16
2022-08-01T03:04:21.015Z,56.49
2022-08-01T03:05:10.057Z,56.16
2022-08-01T03:06:03.496Z,56.40
2022-08-01T03:06:47.786Z,56.39
2022-08-01T03:07:40.664Z,56.47
2022-08-01T03:08:28.886Z,56.20
2022-08-01T03:09:19.779Z,56.22
2022-08-01T03:10:09.346Z,56.54
2022-08-01T03:10:59.644Z,56.20
2022-08-01T03:11:52.533Z,56.37
2022-08-01T03:12:37.637Z,56.65
2022-08-01T03:13:29.769Z,56.52
2022-08-01T03:14:15.710Z,56.57
2022-08-01T03:15:07.648Z,56.29
2022-08-01T03:15:55.141Z,56.20
2022-08-01T03:16:41.734Z,56.54
2022-08-01T03:17:24.404Z,56.47
2022-08-01T03:18:17.736Z,56.57
2022-08-01T03:19:03.882Z,56.52
2022-08-01T03:19:50.690Z,56.51
2022-08-01T03:20:36.824Z,56.52
2022-08-01T03:21:26.640Z,56.32
2022-08-01T03:22:11.735Z,56.52
2022-08-01T03:24:01.912Z,56.31
2022-08-01T03:24:58.403Z,56.15
2022-08-01T03:25:52.505Z,56.52
2022-08-01T03:28:55.786Z,56.48
2022-08-01T03:29:53.681Z,56.49
2022-08-01T03:31:50.600Z,56.07
2022-08-01T03:32:42.955Z,56.36
2022-08-01T03:33:25.332Z,56.09
2022-08-01T03:34:11.476Z,56.15
2022-08-01T03:34:56.577Z,56.11
2022-08-01T03:35:40.509Z,56.22
2022-08-01T03:36:24.255Z,56.42
2022-08-01T03:37:09.298Z,56.27
2022-08-01T03:38:14.658Z,56.45
2022-08-01T03:38:50.672Z,56.01
2022-08-01T03:39:35.654Z,56.01
2022-08-01T03:40:23.400Z,56.14
2022-08-01T03:41:06.359Z,56.08
2022-08-01T03:41:52.567Z,56.04
2022-08-01T03:42:40.015Z,56.03
2022-08-01T03:43:21.071Z,56.00
2022-08-01T03:44:05.264Z,56.07
2022-08-01T03:44:50.355Z,55.99
2022-08-01T03:45:33.666Z,55.94
2022-08-01T03:46:17.799Z,56.26
2022-08-01T03:47:03.206Z,55.83
2022-08-01T03:47:45.875Z,56.22
2022-08-01T03:48:26.886Z,56.20
2022-08-01T03:49:12.000Z,56.12
2022-08-01T03:49:55.560Z,55.97
2022-08-01T03:50:41.393Z,56.21
2022-08-01T03:51:24.946Z,55.94
2022-08-01T03:52:09.360Z,56.27
2022-08-01T03:52:54.357Z,55.92
2022-08-01T03:53:36.055Z,55.95
2022-08-01T03:54:23.587Z,56.10
2022-08-01T03:55:09.082Z,56.00
2022-08-01T03:55:52.049Z,55.90
2022-08-01T03:56:36.791Z,55.91
2022-08-01T03:57:36.424Z,56.17
2022-08-01T03:58:16.634Z,56.11
2022-08-01T03:59:03.474Z,56.00
2022-08-01T03:59:49.634Z,56.32
2022-08-01T04:00:35.314Z,56.23
2022-08-01T04:01:22.818Z,56.33
2022-08-01T04:02:09.945Z,56.27
2022-08-01T04:02:56.174Z,56.39
2022-08-01T04:03:41.475Z,55.96
2022-08-01T04:04:25.124Z,55.96
2022-08-01T04:05:10.367Z,56.16
2022-08-01T04:05:54.916Z,55.76
2022-08-01T04:06:37.979Z,55.99
2022-08-01T04:07:22.742Z,55.97
2022-08-01T04:08:09.374Z,55.63
2022-08-01T04:08:50.776Z,55.78
2022-08-01T04:09:35.564Z,55.88
2022-08-01T04:10:20.564Z,55.60
2022-08-01T04:11:06.434Z,55.47
2022-08-01T04:11:51.052Z,55.61
2022-08-01T04:12:36.628Z,55.56
2022-08-01T04:13:23.294Z,55.38
2022-08-01T04:14:13.772Z,55.45
2022-08-01T04:14:58.444Z,55.69
2022-08-01T04:15:43.864Z,55.76
2022-08-01T04:16:31.283Z,55.76
2022-08-01T04:17:14.859Z,55.40
2022-08-01T04:17:59.489Z,55.40
2022-08-01T04:18:43.331Z,55.66
2022-08-01T04:19:25.228Z,55.67
2022-08-01T04:20:07.985Z,55.37
2022-08-01T04:20:53.691Z,55.38
2022-08-01T04:21:36.986Z,55.35
2022-08-01T04:22:21.950Z,55.44
2022-08-01T04:23:05.271Z,55.62
2022-08-01T04:23:52.597Z,55.42
2022-08-01T04:24:33.468Z,55.70
2022-08-01T04:25:17.247Z,55.71
2022-08-01T04:26:03.434Z,55.67
2022-08-01T04:26:48.043Z,55.43
2022-08-01T04:27:50.021Z,55.72
2022-08-01T04:28:33.960Z,55.71
2022-08-01T04:29:17.713Z,55.73
2022-08-01T04:29:59.828Z,55.35
2022-08-01T04:30:44.971Z,55.57
2022-08-01T04:31:29.934Z,55.40
2022-08-01T04:32:15.242Z,55.40
2022-08-01T04:33:00.445Z,55.70
2022-08-01T04:33:43.748Z,55.39
2022-08-01T04:34:30.559Z,55.35
2022-08-01T04:35:22.839Z,55.36
2022-08-01T04:36:14.966Z,55.35
2022-08-01T04:36:59.495Z,55.35
2022-08-01T04:37:44.823Z,55.67
2022-08-01T04:38:29.485Z,55.70
2022-08-01T04:39:10.640Z,55.49
2022-08-01T04:39:57.344Z,55.41
2022-08-01T04:40:41.743Z,55.40
2022-08-01T04:41:25.372Z,55.29
2022-08-01T04:42:10.292Z,55.66
2022-08-01T04:42:55.754Z,55.48
2022-08-01T04:43:44.673Z,55.63
2022-08-01T04:44:31.001Z,55.35
2022-08-01T04:45:14.779Z,55.21
2022-08-01T04:46:00.379Z,55.45
2022-08-01T04:46:47.799Z,55.23
2022-08-01T04:47:33.583Z,55.54
2022-08-01T04:48:19.226Z,55.29
2022-08-01T04:49:07.107Z,55.16
2022-08-01T04:49:57.702Z,55.23
2022-08-01T04:50:42.987Z,55.29
2022-08-01T04:51:28.762Z,55.34
2022-08-01T04:52:18.139Z,55.10
2022-08-01T04:53:03.872Z,55.41
2022-08-01T04:53:49.811Z,55.31
2022-08-01T04:54:32.543Z,55.43
2022-08-01T04:55:16.437Z,55.24
2022-08-01T04:56:01.778Z,55.38
2022-08-01T04:56:47.402Z,55.53
2022-08-01T04:57:35.088Z,55.51
2022-08-01T04:58:20.720Z,55.60
2022-08-01T04:59:08.404Z,55.23
2022-08-01T04:59:50.773Z,55.37
2022-08-01T05:00:36.212Z,55.50
2022-08-01T05:01:21.999Z,55.47
2022-08-01T05:02:08.972Z,55.52
2022-08-01T05:02:55.525Z,55.24
2022-08-01T05:03:41.840Z,55.67
2022-08-01T05:04:29.372Z,55.53
2022-08-01T05:05:20.419Z,55.56
2022-08-01T05:06:04.671Z,55.41
2022-08-01T05:06:50.338Z,55.67
2022-08-01T05:07:45.176Z,55.39
2022-08-01T05:08:29.518Z,55.31
2022-08-01T05:09:15.989Z,55.63
2022-08-01T05:09:58.711Z,55.44
2022-08-01T05:11:12.938Z,55.33
2022-08-01T05:12:00.641Z,55.66
2022-08-01T05:12:48.305Z,55.73
2022-08-01T05:13:35.928Z,55.68
2022-08-01T05:14:21.448Z,55.60
2022-08-01T05:15:15.453Z,55.42
2022-08-01T05:15:58.469Z,55.51
2022-08-01T05:17:02.398Z,55.69
2022-08-01T05:17:47.391Z,55.65
2022-08-01T05:18:29.971Z,55.62
2022-08-01T05:19:14.967Z,55.69
2022-08-01T05:20:00.353Z,55.66
2022-08-01T05:20:42.350Z,55.38
2022-08-01T05:21:26.280Z,55.40
2022-08-01T05:22:14.284Z,55.32
2022-08-01T05:23:02.957Z,55.83
2022-08-01T05:23:51.001Z,55.74
2022-08-01T05:24:40.117Z,55.53
2022-08-01T05:25:57.614Z,55.63
2022-08-01T05:26:43.309Z,55.41
2022-08-01T05:27:32.120Z,55.52
2022-08-01T05:28:28.117Z,55.42
2022-08-01T05:29:16.316Z,55.32
2022-08-01T05:30:01.633Z,55.62
2022-08-01T05:30:47.150Z,55.63
2022-08-01T05:31:34.682Z,55.43
2022-08-01T05:32:33.179Z,55.39
2022-08-01T05:33:26.298Z,55.49
2022-08-01T05:34:14.833Z,55.43
2022-08-01T05:35:01.665Z,55.47
2022-08-01T05:35:48.150Z,55.65
2022-08-01T05:36:30.473Z,55.40
2022-08-01T05:37:21.068Z,55.52
2022-08-01T05:38:41.119Z,55.63
2022-08-01T05:39:26.366Z,55.41
2022-08-01T05:40:15.332Z,55.31
2022-08-01T05:41:02.561Z,55.46
2022-08-01T05:41:47.117Z,55.50
2022-08-01T05:42:33.094Z,55.38
2022-08-01T05:43:28.200Z,55.41
2022-08-01T05:44:18.572Z,55.75
2022-08-01T05:45:12.593Z,55.38
2022-08-01T05:45:58.973Z,55.48
2022-08-01T05:46:44.364Z,55.41
2022-08-01T05:47:27.372Z,55.67
2022-08-01T05:48:23.255Z,55.41
2022-08-01T05:49:08.440Z,55.72
2022-08-01T05:49:55.641Z,55.46
2022-08-01T05:50:45.907Z,55.31
2022-08-01T05:51:47.408Z,55.58
2022-08-01T05:52:32.662Z,55.45
2022-08-01T05:53:17.766Z,55.55
2022-08-01T05:54:02.096Z,55.70
2022-08-01T05:54:49.336Z,55.51
2022-08-01T05:55:33.743Z,55.51
2022-08-01T05:56:20.694Z,55.56
2022-08-01T05:57:08.921Z,55.33
2022-08-01T05:57:51.184Z,55.52
2022-08-01T05:58:37.583Z,55.68
2022-08-01T05:59:23.035Z,55.39
2022-08-01T06:00:08.196Z,55.36
2022-08-01T06:00:54.663Z,55.31
2022-08-01T06:01:41.364Z,55.35
2022-08-01T06:02:28.903Z,55.41
2022-08-01T06:03:10.959Z,55.27
2022-08-01T06:03:57.980Z,55.46
2022-08-01T06:04:42.690Z,55.66
2022-08-01T06:06:45.170Z,55.34
2022-08-01T06:07:47.025Z,55.39
2022-08-01T06:08:34.055Z,55.38
2022-08-01T06:09:19.533Z,55.34
2022-08-01T06:10:05.899Z,55.43
2022-08-01T06:10:54.639Z,55.42
2022-08-01T06:11:47.155Z,55.59
2022-08-01T06:12:47.537Z,55.75
2022-08-01T06:13:48.886Z,55.61
2022-08-01T06:14:32.320Z,55.38
2022-08-01T06:15:19.176Z,55.38
2022-08-01T06:16:07.388Z,55.52
2022-08-01T06:16:57.936Z,55.26
2022-08-01T06:17:45.145Z,55.61
2022-08-01T06:18:38.611Z,55.30
2022-08-01T06:19:47.907Z,55.67
2022-08-01T06:20:33.506Z,55.38
2022-08-01T06:21:19.924Z,55.18
2022-08-01T06:22:05.246Z,55.27
2022-08-01T06:23:45.748Z,55.46
2022-08-01T06:24:35.805Z,55.43
2022-08-01T06:25:21.173Z,55.38
2022-08-01T06:26:01.975Z,55.21
2022-08-01T06:26:47.972Z,55.52
2022-08-01T06:27:33.462Z,55.26
2022-08-01T06:28:16.815Z,55.23
2022-08-01T06:29:02.113Z,55.21
2022-08-01T06:30:01.455Z,55.26
2022-08-01T06:30:47.790Z,55.27
2022-08-01T06:31:33.501Z,55.37
2022-08-01T06:32:25.423Z,55.25
2022-08-01T06:33:12.018Z,55.21
2022-08-01T06:34:02.481Z,55.13
2022-08-01T06:35:47.900Z,55.38
2022-08-01T06:36:30.534Z,55.09
2022-08-01T06:37:18.566Z,55.28
2022-08-01T06:38:04.358Z,55.30
2022-08-01T06:38:50.527Z,55.29
2022-08-01T06:39:37.756Z,55.14
2022-08-01T06:40:23.585Z,55.07
2022-08-01T06:42:28.674Z,55.29
2022-08-01T06:43:19.020Z,55.54
2022-08-01T06:44:04.894Z,55.38
2022-08-01T06:44:53.486Z,55.41
2022-08-01T06:45:40.420Z,55.19
2022-08-01T06:46:23.106Z,55.04
2022-08-01T06:47:10.831Z,55.16
2022-08-01T06:48:04.601Z,55.41
2022-08-01T06:48:51.037Z,55.46
2022-08-01T06:49:44.553Z,55.45
2022-08-01T06:50:32.244Z,55.42
2022-08-01T06:51:19.823Z,55.53
2022-08-01T06:52:03.436Z,55.39
2022-08-01T06:52:49.439Z,55.30
2022-08-01T06:53:38.010Z,55.16
2022-08-01T06:54:33.592Z,55.16
2022-08-01T06:55:20.648Z,55.10
2022-08-01T06:56:06.494Z,55.22
2022-08-01T06:56:51.140Z,55.34
2022-08-01T06:57:39.551Z,55.25
2022-08-01T06:58:30.915Z,55.11
2022-08-01T06:59:15.878Z,55.10
2022-08-01T07:01:13.114Z,55.16
2022-08-01T07:02:00.330Z,55.03
2022-08-01T07:02:44.980Z,55.04
2022-08-01T07:03:53.904Z,55.24
2022-08-01T07:04:30.676Z,55.11
2022-08-01T07:05:14.892Z,54.87
2022-08-01T07:05:59.649Z,55.08
2022-08-01T07:06:42.506Z,54.95
2022-08-01T07:07:27.424Z,54.71
2022-08-01T07:08:14.482Z,54.94
2022-08-01T07:09:08.457Z,54.74
2022-08-01T07:09:54.498Z,54.68
2022-08-01T07:10:43.427Z,54.97
2022-08-01T07:11:36.271Z,54.69
2022-08-01T07:12:52.500Z,54.95
2022-08-01T07:13:53.347Z,54.68
2022-08-01T07:14:41.328Z,54.64
2022-08-01T07:15:28.445Z,54.59
2022-08-01T07:16:15.851Z,54.64
2022-08-01T07:17:01.460Z,54.70
2022-08-01T07:17:47.258Z,54.69
2022-08-01T07:18:41.420Z,54.76
2022-08-01T07:19:26.458Z,54.99
2022-08-01T07:20:16.595Z,54.70
2022-08-01T07:21:45.250Z,54.75
2022-08-01T07:22:42.572Z,54.80
2022-08-01T07:23:30.473Z,54.95
2022-08-01T07:24:21.162Z,55.04
2022-08-01T07:25:07.589Z,54.96
2022-08-01T07:26:18.115Z,55.01
2022-08-01T07:27:21.275Z,54.70
2022-08-01T07:28:07.226Z,54.94
2022-08-01T07:29:56.179Z,55.11
2022-08-01T07:31:03.994Z,54.71
2022-08-01T07:32:28.555Z,54.83
2022-08-01T07:33:17.727Z,54.81
2022-08-01T07:34:09.915Z,54.78
2022-08-01T07:34:59.169Z,54.77
2022-08-01T07:35:46.405Z,54.90
2022-08-01T07:36:34.016Z,54.70
2022-08-01T07:37:17.960Z,54.63
2022-08-01T07:38:20.767Z,54.78
2022-08-01T07:39:07.730Z,54.77
2022-08-01T07:39:54.744Z,54.47
2022-08-01T07:40:44.062Z,54.44
2022-08-01T07:41:53.849Z,54.73
2022-08-01T07:42:38.165Z,54.39
2022-08-01T07:43:25.719Z,54.69
2022-08-01T07:44:19.136Z,54.44
2022-08-01T07:45:46.406Z,54.50
2022-08-01T07:46:32.172Z,54.68
2022-08-01T07:47:19.345Z,54.33
2022-08-01T07:48:01.991Z,54.35
2022-08-01T07:48:47.808Z,54.66
2022-08-01T07:49:39.165Z,54.47
2022-08-01T07:50:26.096Z,54.43
2022-08-01T07:51:42.111Z,54.38
2022-08-01T07:52:43.339Z,54.68
2022-08-01T07:53:32.540Z,54.32
2022-08-01T07:54:49.245Z,54.36
2022-08-01T07:55:36.815Z,54.31
2022-08-01T07:56:25.100Z,54.38
2022-08-01T07:57:11.997Z,54.35
2022-08-01T07:58:00.345Z,54.38
2022-08-01T07:58:52.552Z,54.70
2022-08-01T07:59:43.045Z,54.65
2022-08-01T08:00:30.694Z,54.38
2022-08-01T08:01:16.659Z,54.38
2022-08-01T08:02:02.841Z,54.30
2022-08-01T08:02:49.641Z,54.29
2022-08-01T08:03:35.757Z,54.49
2022-08-01T08:04:24.417Z,54.62
2022-08-01T08:05:10.800Z,54.61
2022-08-01T08:06:01.260Z,54.56
2022-08-01T08:06:47.835Z,54.35
2022-08-01T08:07:55.224Z,54.36
2022-08-01T08:08:48.712Z,54.37
2022-08-01T08:09:37.337Z,54.60
2022-08-01T08:10:24.838Z,54.19
2022-08-01T08:11:13.621Z,54.57
2022-08-01T08:12:09.021Z,54.50
2022-08-01T08:12:55.848Z,54.29
2022-08-01T08:14:17.036Z,54.18
2022-08-01T08:15:04.394Z,54.07
2022-08-01T08:17:08.033Z,54.42
2022-08-01T08:17:58.922Z,54.11
2022-08-01T08:18:43.069Z,54.42
2022-08-01T08:19:37.259Z,54.60
2022-08-01T08:20:21.298Z,54.29
2022-08-01T08:21:07.108Z,54.40
2022-08-01T08:21:51.808Z,54.33
2022-08-01T08:22:37.855Z,54.34
2022-08-01T08:23:41.201Z,54.36
2022-08-01T08:24:27.331Z,54.52
2022-08-01T08:25:08.625Z,54.40
2022-08-01T08:25:55.204Z,54.72
2022-08-01T08:27:48.625Z,54.60
2022-08-01T08:28:37.775Z,54.53
2022-08-01T08:29:23.611Z,54.54
2022-08-01T08:30:18.442Z,54.56
2022-08-01T08:31:59.915Z,54.70
2022-08-01T08:32:43.815Z,54.65
2022-08-01T08:33:42.736Z,54.85
2022-08-01T08:34:27.599Z,54.66
2022-08-01T08:35:11.970Z,54.56
2022-08-01T08:35:58.312Z,54.54
2022-08-01T08:36:47.698Z,54.42
2022-08-01T08:37:38.000Z,54.74
2022-08-01T08:38:28.416Z,54.61
2022-08-01T08:39:13.184Z,54.26
2022-08-01T08:40:02.007Z,54.22
2022-08-01T08:40:47.928Z,54.28
2022-08-01T08:41:36.957Z,54.49
2022-08-01T08:42:22.629Z,54.28
2022-08-01T08:43:09.607Z,54.51
2022-08-01T08:45:03.083Z,54.35
2022-08-01T08:46:00.079Z,54.28
2022-08-01T08:46:45.278Z,53.96
2022-08-01T08:47:32.342Z,54.33
2022-08-01T08:48:19.629Z,54.01
2022-08-01T08:49:13.225Z,54.39
2022-08-01T08:50:00.040Z,54.46
2022-08-01T08:50:46.085Z,54.63
2022-08-01T08:51:32.880Z,54.27
2022-08-01T08:52:20.035Z,54.18
2022-08-01T08:53:07.009Z,54.35
2022-08-01T08:53:54.951Z,54.03
2022-08-01T08:54:41.163Z,54.20
2022-08-01T08:55:27.802Z,54.04
2022-08-01T08:56:21.997Z,53.85
2022-08-01T08:57:09.795Z,53.90
2022-08-01T08:57:57.498Z,54.11
2022-08-01T08:58:44.424Z,54.14
2022-08-01T08:59:31.058Z,54.01
2022-08-01T09:00:20.313Z,54.12
2022-08-01T09:01:06.697Z,54.46
2022-08-01T09:01:58.738Z,54.43
2022-08-01T09:02:44.999Z,54.27
2022-08-01T09:03:35.010Z,54.31
2022-08-01T09:05:19.081Z,54.18
2022-08-01T09:06:03.054Z,54.10
2022-08-01T09:06:48.411Z,54.00
2022-08-01T09:07:36.670Z,54.08
2022-08-01T09:08:25.790Z,54.12
2022-08-01T09:09:13.805Z,53.87
2022-08-01T09:10:01.845Z,54.00
2022-08-01T09:10:47.491Z,53.84
2022-08-01T09:11:42.685Z,53.96
2022-08-01T09:12:47.220Z,53.79
2022-08-01T09:13:38.471Z,53.73
2022-08-01T09:14:29.548Z,53.82
2022-08-01T09:15:18.987Z,53.94
2022-08-01T09:16:07.065Z,54.02
2022-08-01T09:16:57.066Z,54.06
2022-08-01T09:17:40.242Z,54.39
2022-08-01T09:18:25.213Z,54.46
2022-08-01T09:19:16.501Z,54.36
2022-08-01T09:20:11.634Z,54.30
2022-08-01T09:20:57.392Z,54.20
2022-08-01T09:21:42.732Z,53.94
2022-08-01T09:22:25.553Z,54.21
2022-08-01T09:23:11.302Z,53.94
2022-08-01T09:23:58.987Z,53.94
2022-08-01T09:24:45.893Z,54.24
2022-08-01T09:25:46.009Z,54.04
2022-08-01T09:26:31.180Z,53.88
2022-08-01T09:27:22.404Z,53.79
2022-08-01T09:28:03.771Z,53.90
2022-08-01T09:28:51.740Z,53.85
2022-08-01T09:29:41.533Z,53.73
2022-08-01T09:30:44.753Z,54.06
2022-08-01T09:31:38.394Z,53.72
2022-08-01T09:32:25.986Z,53.76
2022-08-01T09:33:17.723Z,53.77
2022-08-01T09:34:04.002Z,53.83
2022-08-01T09:34:48.638Z,53.80
2022-08-01T09:35:36.512Z,53.63
2022-08-01T09:36:27.861Z,53.45
2022-08-01T09:37:14.916Z,53.42
2022-08-01T09:38:01.505Z,53.65
2022-08-01T09:38:50.875Z,53.70
2022-08-01T09:39:39.876Z,53.43
2022-08-01T09:40:49.274Z,53.24
2022-08-01T09:41:39.887Z,53.13
2022-08-01T09:42:29.049Z,53.13
2022-08-01T09:43:15.013Z,53.01
2022-08-01T09:44:03.268Z,53.19
2022-08-01T09:44:55.117Z,53.12
2022-08-01T09:45:41.838Z,53.18
2022-08-01T09:46:28.580Z,53.51
2022-08-01T09:47:15.622Z,53.47
2022-08-01T09:48:58.051Z,53.25
2022-08-01T09:49:50.652Z,53.31
2022-08-01T09:50:39.421Z,53.66
2022-08-01T09:51:57.900Z,53.46
2022-08-01T09:52:28.968Z,53.59
2022-08-01T09:53:24.472Z,53.47
2022-08-01T09:54:16.664Z,53.58
2022-08-01T09:55:02.079Z,53.59
2022-08-01T09:56:04.840Z,53.61
2022-08-01T09:56:52.486Z,53.60
2022-08-01T09:57:37.249Z,53.50
2022-08-01T09:58:25.780Z,53.45
2022-08-01T09:59:10.913Z,53.65
2022-08-01T09:59:58.639Z,53.34
2022-08-01T10:00:45.619Z,53.31
2022-08-01T10:01:36.716Z,53.72
2022-08-01T10:02:34.916Z,53.78
2022-08-01T10:03:20.876Z,53.51
2022-08-01T10:04:06.303Z,53.75
2022-08-01T10:04:50.845Z,53.75
2022-08-01T10:05:38.290Z,53.83
2022-08-01T10:06:31.721Z,53.46
2022-08-01T10:07:42.542Z,53.43
2022-08-01T10:08:24.183Z,53.35
2022-08-01T10:09:16.668Z,53.29
2022-08-01T10:10:12.331Z,53.39
2022-08-01T10:11:00.206Z,53.29
2022-08-01T10:11:47.001Z,53.45
2022-08-01T10:12:47.720Z,53.17
2022-08-01T10:13:36.348Z,53.24
2022-08-01T10:14:21.408Z,53.17
2022-08-01T10:15:05.677Z,53.00
2022-08-01T10:15:50.455Z,52.97
2022-08-01T10:16:35.293Z,53.11
2022-08-01T10:17:23.097Z,52.62
2022-08-01T10:18:25.310Z,52.63
2022-08-01T10:19:14.637Z,52.53
2022-08-01T10:19:59.597Z,52.49
2022-08-01T10:20:45.733Z,52.45
2022-08-01T10:21:56.112Z,52.81
2022-08-01T10:22:31.796Z,52.70
2022-08-01T10:23:22.876Z,52.68
2022-08-01T10:24:28.093Z,52.44
2022-08-01T10:25:12.078Z,52.71
2022-08-01T10:26:01.640Z,52.41
2022-08-01T10:26:49.223Z,52.64
2022-08-01T10:27:38.492Z,52.37
2022-08-01T10:28:36.227Z,52.67
2022-08-01T10:29:24.254Z,52.26
2022-08-01T10:30:26.949Z,52.54
2022-08-01T10:31:14.593Z,52.52
2022-08-01T10:32:00.553Z,52.27
2022-08-01T10:32:50.862Z,52.12
2022-08-01T10:34:56.153Z,52.15
2022-08-01T10:37:06.757Z,52.11
2022-08-01T10:37:55.799Z,52.33
2022-08-01T10:38:39.917Z,52.14
2022-08-01T10:39:27.809Z,52.37
2022-08-01T10:40:36.048Z,52.06
2022-08-01T10:41:22.836Z,52.04
2022-08-01T10:42:16.219Z,52.00
2022-08-01T10:43:07.121Z,52.03
2022-08-01T10:43:54.202Z,51.95
2022-08-01T10:44:39.925Z,52.22
2022-08-01T10:45:25.614Z,52.16
2022-08-01T10:46:14.604Z,52.08
2022-08-01T10:47:00.696Z,52.24
2022-08-01T10:47:50.676Z,52.24
2022-08-01T10:48:33.019Z,52.12
2022-08-01T10:49:18.827Z,52.07
2022-08-01T10:50:03.888Z,52.01
2022-08-01T10:50:50.074Z,52.04
2022-08-01T10:51:52.780Z,52.24
2022-08-01T10:52:39.782Z,51.88
2022-08-01T10:53:31.731Z,51.88
2022-08-01T10:54:25.777Z,52.16
2022-08-01T10:55:13.281Z,52.25
2022-08-01T10:56:01.355Z,51.89
2022-08-01T10:56:46.846Z,52.09
2022-08-01T10:57:34.974Z,52.00
2022-08-01T10:58:35.651Z,52.19
2022-08-01T10:59:49.344Z,52.19
2022-08-01T11:00:27.772Z,51.94
2022-08-01T11:01:16.254Z,51.78
2022-08-01T11:02:08.305Z,51.77
2022-08-01T11:02:54.172Z,51.95
2022-08-01T11:03:57.178Z,51.96
2022-08-01T11:04:43.100Z,51.63
2022-08-01T11:05:51.679Z,51.90
2022-08-01T11:06:39.259Z,51.58
2022-08-01T11:07:34.959Z,51.81
2022-08-01T11:08:20.841Z,52.14
2022-08-01T11:09:17.901Z,51.80
2022-08-01T11:10:04.280Z,51.68
2022-08-01T11:10:54.629Z,51.59
2022-08-01T11:11:43.192Z,51.50
2022-08-01T11:12:31.282Z,51.45
2022-08-01T11:13:22.330Z,51.61
2022-08-01T11:14:25.986Z,51.37
2022-08-01T11:15:11.173Z,51.59
2022-08-01T11:16:00.099Z,51.84
2022-08-01T11:16:56.361Z,51.55
2022-08-01T11:17:44.419Z,51.46
2022-08-01T11:18:39.257Z,51.31
2022-08-01T11:19:31.442Z,51.24
2022-08-01T11:20:17.849Z,51.22
2022-08-01T11:21:58.831Z,51.35
2022-08-01T11:22:13.744Z,51.50
2022-08-01T11:23:00.294Z,51.37
2022-08-01T11:23:45.383Z,51.19
2022-08-01T11:24:41.513Z,51.55
2022-08-01T11:26:03.244Z,51.48
2022-08-01T11:27:45.264Z,51.81